createdAt,value
2023-06-19T00:00:24.537Z,18.01
2023-06-19T00:03:49.287Z,17.15
2023-06-19T00:07:12.213Z,16.70
2023-06-19T00:10:36.228Z,16.49
2023-06-19T00:14:00.284Z,16.65
2023-06-19T00:17:27.288Z,16.56
2023-06-19T00:20:55.209Z,16.09
2023-06-19T00:24:19.257Z,16.81
2023-06-19T00:27:42.228Z,18.28
2023-06-19T00:31:06.285Z,17.36
2023-06-19T00:34:33.195Z,16.94
2023-06-19T00:37:56.268Z,16.51
2023-06-19T00:41:20.231Z,16.51
2023-06-19T00:44:43.269Z,17.05
2023-06-19T00:48:06.265Z,16.49
2023-06-19T00:51:30.254Z,16.52
2023-06-19T00:54:55.248Z,17.52
2023-06-19T00:58:19.219Z,17.48
2023-06-19T01:01:43.394Z,18.53
2023-06-19T01:05:08.258Z,19.00
2023-06-19T01:08:40.264Z,18.63
2023-06-19T01:12:00.947Z,17.27
2023-06-19T01:15:19.287Z,18.34
2023-06-19T01:18:43.234Z,17.76
2023-06-19T01:22:06.292Z,16.66
2023-06-19T01:25:30.224Z,16.67
2023-06-19T01:28:59.301Z,16.52
2023-06-19T01:32:29.270Z,16.64
2023-06-19T01:35:56.333Z,17.70
2023-06-19T01:39:20.236Z,16.96
2023-06-19T01:42:43.297Z,16.21
2023-06-19T01:46:07.302Z,16.82
2023-06-19T01:49:30.262Z,17.68
2023-06-19T01:52:57.290Z,18.31
2023-06-19T01:56:20.264Z,17.13
2023-06-19T01:59:43.308Z,17.07
2023-06-19T02:03:07.395Z,17.12
2023-06-19T02:06:32.306Z,16.65
2023-06-19T02:09:57.292Z,17.19
2023-06-19T02:13:21.505Z,18.34
2023-06-19T02:16:47.329Z,17.97
2023-06-19T02:20:14.372Z,18.53
2023-06-19T02:23:38.351Z,18.69
2023-06-19T02:27:02.391Z,18.63
2023-06-19T02:30:25.581Z,18.67
2023-06-19T02:33:49.348Z,18.72
2023-06-19T02:37:12.306Z,18.21
2023-06-19T02:40:35.373Z,17.06
2023-06-19T02:44:01.373Z,17.17
2023-06-19T02:47:25.371Z,17.30
2023-06-19T02:50:48.278Z,17.04
2023-06-19T02:54:12.349Z,17.01
2023-06-19T02:57:35.330Z,17.25
2023-06-19T03:00:59.389Z,18.01
2023-06-19T03:04:23.302Z,18.32
2023-06-19T03:07:47.352Z,18.06
2023-06-19T03:11:14.350Z,17.47
2023-06-19T03:14:37.322Z,18.46
2023-06-19T03:18:02.432Z,17.72
2023-06-19T03:21:31.309Z,17.87
2023-06-19T03:24:54.310Z,17.57
2023-06-19T03:28:19.366Z,17.92
2023-06-19T03:31:43.291Z,18.00
2023-06-19T03:35:08.326Z,17.64
2023-06-19T03:38:34.346Z,17.17
2023-06-19T03:41:59.290Z,16.98
2023-06-19T03:45:23.336Z,16.63
2023-06-19T03:48:47.304Z,16.70
2023-06-19T03:52:12.348Z,16.46
2023-06-19T03:55:36.284Z,16.21
2023-06-19T03:59:02.495Z,16.13
2023-06-19T04:02:27.364Z,16.12
2023-06-19T04:05:51.349Z,16.19
2023-06-19T04:09:15.333Z,15.99
2023-06-19T04:12:38.373Z,15.98
2023-06-19T04:16:03.340Z,15.86
2023-06-19T04:19:28.314Z,15.92
2023-06-19T04:22:51.317Z,15.72
2023-06-19T04:26:14.331Z,15.58
2023-06-19T04:29:40.333Z,15.65
2023-06-19T04:33:03.513Z,15.59
2023-06-19T04:36:27.513Z,15.38
2023-06-19T04:39:51.356Z,15.27
2023-06-19T04:43:17.356Z,15.17
2023-06-19T04:46:40.453Z,14.86
2023-06-19T04:50:04.382Z,14.93
2023-06-19T04:53:28.327Z,14.87
2023-06-19T04:56:51.365Z,14.56
2023-06-19T05:00:15.332Z,14.47
2023-06-19T05:03:38.540Z,14.48
2023-06-19T05:07:02.336Z,14.40
2023-06-19T05:10:26.674Z,14.21
2023-06-19T05:13:50.340Z,14.17
2023-06-19T05:17:14.457Z,14.14
2023-06-19T05:20:38.404Z,14.30
2023-06-19T05:24:02.608Z,14.40
2023-06-19T05:27:35.342Z,14.26
2023-06-19T05:30:59.397Z,14.27
2023-06-19T05:34:23.376Z,14.08
2023-06-19T05:37:47.397Z,14.03
2023-06-19T05:41:10.340Z,14.06
2023-06-19T05:44:33.535Z,14.02
2023-06-19T05:47:57.427Z,14.01
2023-06-19T05:51:21.408Z,13.87
2023-06-19T05:54:44.438Z,13.83
2023-06-19T05:58:08.368Z,13.60
2023-06-19T06:01:33.399Z,13.68
2023-06-19T06:04:56.615Z,13.38
2023-06-19T06:08:21.386Z,13.41
2023-06-19T06:11:45.406Z,13.42
2023-06-19T06:15:09.388Z,13.43
2023-06-19T06:18:34.379Z,13.32
2023-06-19T06:21:58.364Z,13.27
2023-06-19T06:25:21.416Z,13.16
2023-06-19T06:28:45.392Z,13.03
2023-06-19T06:32:19.429Z,12.94
2023-06-19T06:35:44.381Z,12.90
2023-06-19T06:39:08.425Z,12.82
2023-06-19T06:42:32.388Z,12.80
2023-06-19T06:45:56.425Z,12.76
2023-06-19T06:49:20.403Z,12.83
2023-06-19T06:52:44.386Z,12.88
2023-06-19T06:56:09.374Z,12.69
2023-06-19T06:59:35.435Z,12.79
2023-06-19T07:02:59.481Z,12.72
2023-06-19T07:06:24.431Z,12.66
2023-06-19T07:09:48.419Z,12.70
2023-06-19T07:13:13.428Z,12.52
2023-06-19T07:16:37.451Z,12.29
2023-06-19T07:19:55.332Z,12.30
2023-06-19T07:23:15.473Z,12.18
2023-06-19T07:26:40.386Z,12.28
2023-06-19T07:30:03.515Z,12.25
2023-06-19T07:33:26.417Z,12.13
2023-06-19T07:36:50.430Z,12.13
2023-06-19T07:40:13.421Z,12.09
2023-06-19T07:43:36.536Z,11.99
2023-06-19T07:46:59.402Z,12.00
2023-06-19T07:50:26.296Z,11.97
2023-06-19T07:53:52.449Z,11.92
2023-06-19T07:57:17.388Z,11.88
2023-06-19T08:00:34.468Z,11.82
2023-06-19T08:03:58.471Z,11.80
2023-06-19T08:07:22.601Z,11.65
2023-06-19T08:10:45.429Z,11.70
2023-06-19T08:14:08.462Z,11.59
2023-06-19T08:17:33.437Z,11.38
2023-06-19T08:20:58.424Z,11.29
2023-06-19T08:24:22.456Z,10.99
2023-06-19T08:27:45.461Z,10.62
2023-06-19T08:31:08.444Z,10.49
2023-06-19T08:34:31.434Z,10.39
2023-06-19T08:37:54.468Z,10.36
2023-06-19T08:41:17.466Z,10.27
2023-06-19T08:44:42.454Z,10.28
2023-06-19T08:48:05.518Z,10.11
2023-06-19T08:51:30.447Z,10.06
2023-06-19T08:54:55.425Z,9.93
2023-06-19T08:58:19.456Z,9.87
2023-06-19T09:01:43.441Z,9.91
2023-06-19T09:05:06.492Z,10.09
2023-06-19T09:08:31.439Z,9.95
2023-06-19T09:11:54.480Z,10.01
2023-06-19T09:15:18.423Z,9.97
2023-06-19T09:18:42.498Z,10.04
2023-06-19T09:22:02.038Z,9.92
2023-06-19T09:25:27.632Z,10.00
2023-06-19T09:28:59.450Z,10.00
2023-06-19T09:32:32.496Z,9.87
2023-06-19T09:35:56.445Z,9.83
2023-06-19T09:39:19.463Z,9.88
2023-06-19T09:42:51.483Z,9.70
2023-06-19T09:46:20.463Z,9.98
2023-06-19T09:49:44.477Z,9.95
2023-06-19T09:53:08.492Z,10.14
2023-06-19T09:56:33.464Z,10.25
2023-06-19T09:59:59.954Z,9.70
2023-06-19T10:03:29.582Z,9.39
2023-06-19T10:07:06.492Z,9.35
2023-06-19T10:10:43.440Z,9.69
2023-06-19T10:14:07.523Z,9.78
2023-06-19T10:17:34.540Z,9.83
2023-06-19T10:21:00.468Z,9.62
2023-06-19T10:24:24.248Z,9.31
2023-06-19T10:27:53.510Z,9.23
2023-06-19T10:31:27.471Z,9.29
2023-06-19T10:34:53.535Z,9.48
2023-06-19T10:38:19.542Z,9.42
2023-06-19T10:41:43.463Z,9.34
2023-06-19T10:45:07.531Z,9.16
2023-06-19T10:48:36.505Z,9.25
2023-06-19T10:52:07.524Z,9.13
2023-06-19T10:55:30.503Z,9.30
2023-06-19T10:58:55.512Z,9.23
2023-06-19T11:02:19.650Z,9.18
2023-06-19T11:05:44.502Z,9.38
2023-06-19T11:09:09.492Z,9.40
2023-06-19T11:12:45.484Z,9.15
2023-06-19T11:16:08.503Z,9.13
2023-06-19T11:19:35.675Z,9.36
2023-06-19T11:23:00.491Z,8.95
2023-06-19T11:26:28.300Z,8.65
2023-06-19T11:29:53.520Z,8.81
2023-06-19T11:33:18.554Z,9.01
2023-06-19T11:36:42.518Z,8.91
2023-06-19T11:40:06.574Z,8.75
2023-06-19T11:43:46.492Z,8.69
2023-06-19T11:47:13.572Z,8.73
2023-06-19T11:50:44.495Z,8.55
2023-06-19T11:54:07.597Z,8.28
2023-06-19T11:57:30.492Z,8.43
2023-06-19T12:00:53.552Z,8.20
2023-06-19T12:04:18.700Z,8.10
2023-06-19T12:07:41.761Z,8.18
2023-06-19T12:11:05.470Z,8.06
2023-06-19T12:14:29.559Z,8.00
2023-06-19T12:17:52.509Z,7.79
2023-06-19T12:21:32.749Z,7.72
2023-06-19T12:24:58.535Z,7.83
2023-06-19T12:28:27.576Z,7.90
2023-06-19T12:31:52.515Z,7.81
2023-06-19T12:35:16.549Z,7.97
2023-06-19T12:38:40.532Z,8.24
2023-06-19T12:42:04.545Z,7.99
2023-06-19T12:45:28.550Z,7.88
2023-06-19T12:48:51.732Z,7.83
2023-06-19T12:52:15.547Z,7.67
2023-06-19T12:55:52.569Z,7.76
2023-06-19T12:59:24.509Z,7.74
2023-06-19T13:02:48.647Z,7.82
2023-06-19T13:06:12.544Z,7.68
2023-06-19T13:09:35.538Z,7.73
2023-06-19T13:12:58.542Z,7.68
2023-06-19T13:16:44.641Z,7.58
2023-06-19T13:20:16.016Z,7.57
2023-06-19T13:23:41.558Z,7.47
2023-06-19T13:27:05.557Z,7.59
2023-06-19T13:30:30.581Z,7.46
2023-06-19T13:33:56.553Z,7.56
2023-06-19T13:37:19.717Z,7.51
2023-06-19T13:40:43.524Z,7.66
2023-06-19T13:44:07.594Z,7.45
2023-06-19T13:47:34.576Z,7.57
2023-06-19T13:50:58.577Z,7.71
2023-06-19T13:54:22.505Z,7.72
2023-06-19T13:57:49.680Z,7.71
2023-06-19T14:01:12.593Z,7.80
2023-06-19T14:04:35.550Z,7.74
2023-06-19T14:08:00.530Z,7.79
2023-06-19T14:11:27.584Z,7.83
2023-06-19T14:14:50.622Z,7.78
2023-06-19T14:18:15.596Z,7.73
2023-06-19T14:21:39.541Z,7.72
2023-06-19T14:25:08.725Z,7.69
2023-06-19T14:28:32.536Z,7.89
2023-06-19T14:31:56.578Z,7.85
2023-06-19T14:35:21.542Z,7.78
2023-06-19T14:38:45.596Z,7.95
2023-06-19T14:42:09.659Z,7.89
2023-06-19T14:45:32.586Z,7.82
2023-06-19T14:48:56.621Z,7.78
2023-06-19T14:52:21.583Z,7.82
2023-06-19T14:55:52.595Z,7.75
2023-06-19T14:59:16.543Z,7.71
2023-06-19T15:02:41.407Z,7.67
2023-06-19T15:06:04.539Z,7.82
2023-06-19T15:09:28.591Z,7.82
2023-06-19T15:12:52.577Z,7.81
2023-06-19T15:16:16.615Z,7.74
2023-06-19T15:19:41.592Z,7.72
2023-06-19T15:23:06.618Z,7.61
2023-06-19T15:26:29.573Z,7.53
2023-06-19T15:29:53.583Z,7.53
2023-06-19T15:33:11.147Z,7.54
2023-06-19T15:36:29.592Z,7.50
2023-06-19T15:39:53.581Z,7.54
2023-06-19T15:43:16.596Z,7.72
2023-06-19T15:46:40.684Z,7.47
2023-06-19T15:50:04.587Z,7.63
2023-06-19T15:53:28.611Z,7.62
2023-06-19T15:56:55.774Z,7.65
2023-06-19T16:00:22.786Z,7.65
2023-06-19T16:03:49.317Z,7.60
2023-06-19T16:07:13.612Z,7.75
2023-06-19T16:10:37.616Z,7.57
2023-06-19T16:14:01.601Z,7.55
2023-06-19T16:17:24.815Z,7.49
2023-06-19T16:20:48.606Z,7.60
2023-06-19T16:24:11.783Z,7.61
2023-06-19T16:27:35.576Z,7.68
2023-06-19T16:30:59.640Z,7.47
2023-06-19T16:34:22.733Z,7.58
2023-06-19T16:37:46.566Z,7.51
2023-06-19T16:41:10.783Z,7.59
2023-06-19T16:44:35.560Z,7.61
2023-06-19T16:47:59.656Z,7.68
2023-06-19T16:51:23.574Z,7.66
2023-06-19T16:54:47.665Z,7.63
2023-06-19T16:58:14.611Z,7.79
2023-06-19T17:01:37.869Z,7.75
2023-06-19T17:05:02.612Z,7.70
2023-06-19T17:08:27.783Z,7.78
2023-06-19T17:11:53.637Z,7.75
2023-06-19T17:15:17.677Z,7.95
2023-06-19T17:18:41.621Z,8.06
2023-06-19T17:22:06.822Z,8.10
2023-06-19T17:25:29.622Z,7.97
2023-06-19T17:28:52.644Z,7.91
2023-06-19T17:32:17.664Z,7.84
2023-06-19T17:35:40.626Z,7.79
2023-06-19T17:39:06.232Z,7.97
2023-06-19T17:42:30.658Z,8.06
2023-06-19T17:45:54.637Z,8.20
2023-06-19T17:49:19.562Z,8.20
2023-06-19T17:52:43.626Z,8.10
2023-06-19T17:56:11.674Z,8.20
2023-06-19T17:59:34.624Z,8.07
2023-06-19T18:02:58.712Z,8.17
2023-06-19T18:06:24.654Z,8.43
2023-06-19T18:09:47.624Z,8.34
2023-06-19T18:13:13.616Z,8.37
2023-06-19T18:16:38.589Z,8.30
2023-06-19T18:20:03.676Z,8.26
2023-06-19T18:23:28.507Z,8.37
2023-06-19T18:26:53.613Z,8.39
2023-06-19T18:30:17.698Z,8.40
2023-06-19T18:33:41.644Z,8.41
2023-06-19T18:37:06.668Z,8.40
2023-06-19T18:40:32.229Z,8.35
2023-06-19T18:43:59.620Z,8.44
2023-06-19T18:47:24.629Z,8.33
2023-06-19T18:50:50.698Z,8.28
2023-06-19T18:54:14.647Z,8.44
2023-06-19T18:57:38.685Z,8.44
2023-06-19T19:01:05.128Z,8.25
2023-06-19T19:04:30.841Z,8.32
2023-06-19T19:07:55.638Z,8.30
2023-06-19T19:11:18.844Z,8.26
2023-06-19T19:14:43.637Z,8.37
2023-06-19T19:18:06.701Z,8.50
2023-06-19T19:21:30.624Z,8.56
2023-06-19T19:24:56.692Z,8.55
2023-06-19T19:28:23.671Z,8.55
2023-06-19T19:31:48.678Z,8.49
2023-06-19T19:35:12.713Z,8.47
2023-06-19T19:38:36.762Z,8.42
2023-06-19T19:42:00.705Z,8.92
2023-06-19T19:45:23.686Z,8.64
2023-06-19T19:48:46.654Z,8.55
2023-06-19T19:52:11.683Z,8.42
2023-06-19T19:55:35.640Z,8.50
2023-06-19T19:58:59.672Z,8.41
2023-06-19T20:02:22.744Z,8.41
2023-06-19T20:05:48.611Z,8.28
2023-06-19T20:09:11.643Z,8.39
2023-06-19T20:12:35.830Z,8.50
2023-06-19T20:15:59.704Z,8.52
2023-06-19T20:19:26.780Z,8.56
2023-06-19T20:22:50.664Z,8.57
2023-06-19T20:26:15.801Z,8.62
2023-06-19T20:29:39.660Z,8.67
2023-06-19T20:33:02.837Z,8.73
2023-06-19T20:36:25.683Z,8.83
2023-06-19T20:39:50.754Z,9.01
2023-06-19T20:43:19.652Z,9.24
2023-06-19T20:46:43.809Z,9.52
2023-06-19T20:50:07.679Z,9.65
2023-06-19T20:53:31.715Z,9.64
2023-06-19T20:56:54.692Z,9.67
2023-06-19T21:00:19.709Z,9.81
2023-06-19T21:03:42.721Z,10.43
2023-06-19T21:07:05.697Z,11.72
2023-06-19T21:10:28.862Z,12.39
2023-06-19T21:13:51.727Z,14.68
2023-06-19T21:17:14.681Z,15.58
2023-06-19T21:20:38.790Z,14.09
2023-06-19T21:24:01.716Z,14.66
2023-06-19T21:27:24.737Z,14.50
2023-06-19T21:30:48.687Z,14.02
2023-06-19T21:34:12.735Z,13.46
2023-06-19T21:37:35.682Z,14.84
2023-06-19T21:41:00.730Z,15.03
2023-06-19T21:44:27.441Z,13.89
2023-06-19T21:47:51.300Z,15.71
2023-06-19T21:51:15.692Z,16.41
2023-06-19T21:54:38.870Z,15.79
2023-06-19T21:58:01.726Z,15.86
2023-06-19T22:01:24.707Z,15.78
2023-06-19T22:04:48.733Z,16.42
2023-06-19T22:08:13.760Z,16.70
2023-06-19T22:11:36.698Z,17.11
2023-06-19T22:15:00.844Z,15.98
2023-06-19T22:18:26.711Z,16.18
2023-06-19T22:21:53.904Z,15.59
2023-06-19T22:25:17.720Z,15.41
2023-06-19T22:28:41.850Z,15.37
2023-06-19T22:32:05.720Z,15.53
2023-06-19T22:35:31.429Z,15.45
2023-06-19T22:38:57.728Z,15.42
2023-06-19T22:42:24.839Z,15.10
2023-06-19T22:45:48.792Z,14.42
2023-06-19T22:49:12.897Z,14.60
2023-06-19T22:52:41.741Z,14.48
2023-06-19T22:56:06.762Z,14.85
2023-06-19T22:59:29.716Z,14.68
2023-06-19T23:03:00.936Z,14.88
2023-06-19T23:06:24.711Z,14.58
2023-06-19T23:09:49.755Z,14.99
2023-06-19T23:13:13.704Z,15.47
2023-06-19T23:16:37.768Z,15.11
2023-06-19T23:20:06.759Z,15.63
2023-06-19T23:23:31.754Z,15.65
2023-06-19T23:26:57.746Z,15.72
2023-06-19T23:30:20.910Z,16.21
2023-06-19T23:33:44.748Z,16.65
2023-06-19T23:37:07.764Z,17.25
2023-06-19T23:40:30.758Z,17.03
2023-06-19T23:43:53.919Z,16.92
2023-06-19T23:47:18.762Z,17.07
2023-06-19T23:50:44.877Z,16.74
2023-06-19T23:54:08.757Z,17.36
2023-06-19T23:57:32.775Z,17.20
